Time;durP1;ratioP1;P1;durP2;ratioP2;P2;SDS_P1;SDS_P2;PMS_P1;PMS_P2;Temp;Humidity;BMP_temperature;BMP_pressure;BME280_temperature;BME280_humidity;BME280_pressure;Samples;Min_cycle;Max_cycle;Signal;HPM_P1;HPM_P2
2022/01/06 00:01:23;;;;;;;2.30;0.30;;;22.20;39.20;;;;;;5045137;28;20132;-61
2022/01/06 00:03:52;;;;;;;3.30;0.50;;;22.20;39.20;;;;;;5044531;28;20138;-59
2022/01/06 00:06:23;;;;;;;3.03;0.57;;;22.20;39.20;;;;;;5041547;28;20403;-60
2022/01/06 00:08:53;;;;;;;2.28;0.73;;;22.20;39.20;;;;;;5039398;28;20521;-64
2022/01/06 00:11:21;;;;;;;2.95;0.60;;;22.20;39.20;;;;;;5035473;28;20038;-67
2022/01/06 00:13:55;;;;;;;1.88;0.52;;;22.20;39.30;;;;;;5043146;28;20051;-67
2022/01/06 00:16:33;;;;;;;3.53;1.17;;;22.20;39.30;;;;;;5043983;28;20052;-61
2022/01/06 00:24:31;;;;;;;2.20;0.30;;;22.20;39.30;;;;;;5041594;28;20047;-61
2022/01/06 00:26:59;;;;;;;1.80;0.75;;;22.20;39.30;;;;;;5042303;28;20037;-62
2022/01/06 00:29:26;;;;;;;1.15;0.20;;;22.20;39.20;;;;;;5038776;28;20045;-61
2022/01/06 00:31:54;;;;;;;5.07;0.73;;;22.20;39.20;;;;;;5040760;28;20409;-61
2022/01/06 00:34:21;;;;;;;2.78;0.50;;;22.10;39.20;;;;;;5044922;28;20100;-64
2022/01/06 00:36:49;;;;;;;3.85;0.73;;;22.10;39.20;;;;;;5043638;28;20044;-68
2022/01/06 00:39:16;;;;;;;3.15;0.60;;;22.10;39.10;;;;;;5039904;28;20052;-58
2022/01/06 00:41:43;;;;;;;2.28;0.80;;;22.10;39.10;;;;;;5041779;28;20121;-60
2022/01/06 00:44:10;;;;;;;1.45;1.02;;;22.10;39.10;;;;;;5041894;28;20137;-70
2022/01/06 00:46:37;;;;;;;1.13;0.30;;;22.10;39.10;;;;;;5035002;28;20049;-66
2022/01/06 00:49:05;;;;;;;1.80;0.47;;;22.10;39.20;;;;;;5038315;28;20421;-70
2022/01/06 00:51:33;;;;;;;0.60;0.30;;;22.10;39.20;;;;;;5037518;28;20577;-59
2022/01/06 00:54:01;;;;;;;1.95;0.50;;;22.10;39.10;;;;;;5037718;28;20044;-58
2022/01/06 00:56:28;;;;;;;1.63;0.65;;;22.10;39.00;;;;;;5036463;28;20668;-60
2022/01/06 00:58:55;;;;;;;1.48;0.20;;;22.10;38.80;;;;;;5036751;28;20045;-58
2022/01/06 01:01:22;;;;;;;3.08;0.77;;;22.10;38.70;;;;;;5034209;28;21592;-60
2022/01/06 01:03:49;;;;;;;8.02;0.90;;;22.10;38.60;;;;;;5042173;28;20494;-59
2022/01/06 01:06:16;;;;;;;1.55;0.70;;;22.10;38.50;;;;;;5042176;28;20063;-57
2022/01/06 01:08:44;;;;;;;5.07;0.50;;;22.10;38.50;;;;;;5041080;28;20059;-73
2022/01/06 01:11:12;;;;;;;1.73;0.82;;;22.00;38.60;;;;;;5046694;28;20035;-72
2022/01/06 01:13:54;;;;;;;4.55;0.40;;;22.00;38.90;;;;;;5047277;28;20053;-75
2022/01/06 01:16:26;;;;;;;4.10;0.90;;;22.00;39.00;;;;;;5048561;28;20412;-71
2022/01/06 01:18:55;;;;;;;3.67;0.40;;;22.00;39.30;;;;;;5046032;28;20881;-67
2022/01/06 01:21:26;;;;;;;3.40;0.90;;;22.00;39.20;;;;;;5043941;28;20136;-62
2022/01/06 01:23:54;;;;;;;1.58;0.43;;;22.00;39.20;;;;;;5043069;28;20075;-63
2022/01/06 01:26:23;;;;;;;2.67;0.55;;;22.00;39.30;;;;;;5040204;28;20156;-61
2022/01/06 01:28:51;;;;;;;2.58;0.82;;;22.10;39.30;;;;;;5042440;28;20556;-68
2022/01/06 01:31:25;;;;;;;1.05;0.47;;;22.00;39.10;;;;;;5043943;28;20048;-61
2022/01/06 01:33:57;;;;;;;0.47;0.38;;;22.10;39.20;;;;;;5046969;28;20033;-62
2022/01/06 01:36:24;;;;;;;4.15;0.65;;;22.00;39.10;;;;;;5036858;28;20042;-60
2022/01/06 01:38:51;;;;;;;1.58;0.60;;;22.00;39.00;;;;;;5043609;28;20052;-58
2022/01/06 01:41:19;;;;;;;2.83;0.38;;;22.00;39.00;;;;;;5040683;28;20584;-60
2022/01/06 01:43:48;;;;;;;1.80;0.40;;;22.00;39.00;;;;;;5044464;28;20041;-60
2022/01/06 01:46:16;;;;;;;1.73;0.30;;;22.00;39.00;;;;;;5047211;28;20145;-63
2022/01/06 01:48:48;;;;;;;3.53;0.32;;;22.00;39.00;;;;;;5042468;28;20045;-63
2022/01/06 01:51:16;;;;;;;2.00;0.95;;;22.00;39.00;;;;;;5045251;28;20088;-64
2022/01/06 01:53:43;;;;;;;1.45;0.65;;;22.00;39.00;;;;;;5037566;28;20060;-64
2022/01/06 01:56:12;;;;;;;0.70;0.52;;;22.00;39.00;;;;;;5040206;28;20048;-67
2022/01/06 01:58:40;;;;;;;2.88;0.35;;;22.00;38.90;;;;;;5041741;28;20041;-60
2022/01/06 02:01:09;;;;;;;1.33;0.20;;;22.00;38.90;;;;;;5047111;28;20394;-66
2022/01/06 02:03:37;;;;;;;2.90;0.30;;;22.00;38.90;;;;;;5043427;28;20068;-67
2022/01/06 02:06:04;;;;;;;2.58;1.00;;;22.00;38.90;;;;;;5044146;28;20053;-65
2022/01/06 02:08:32;;;;;;;2.17;0.50;;;21.90;38.90;;;;;;5041160;28;20043;-68
2022/01/06 02:10:59;;;;;;;3.83;0.77;;;21.90;38.90;;;;;;5042244;28;20049;-65
2022/01/06 02:13:29;;;;;;;1.95;0.43;;;22.00;39.00;;;;;;5038458;28;20472;-64
2022/01/06 02:15:58;;;;;;;2.33;0.40;;;21.90;38.90;;;;;;5044960;28;20037;-62
2022/01/06 02:18:27;;;;;;;1.63;0.73;;;21.90;39.00;;;;;;5035210;28;20128;-58
2022/01/06 02:20:57;;;;;;;3.72;0.32;;;21.90;39.00;;;;;;5042769;28;20044;-60
2022/01/06 02:23:24;;;;;;;2.03;0.43;;;21.90;39.00;;;;;;5039638;28;20055;-60
2022/01/06 02:25:51;;;;;;;3.10;0.38;;;21.90;38.90;;;;;;5042640;28;20045;-60
2022/01/06 02:28:19;;;;;;;2.08;0.43;;;21.90;38.90;;;;;;5046016;28;20041;-60
2022/01/06 02:30:50;;;;;;;3.00;0.43;;;21.90;38.80;;;;;;5041079;28;20569;-63
2022/01/06 02:33:18;;;;;;;2.00;0.40;;;21.90;38.90;;;;;;5040326;28;20052;-61
2022/01/06 02:35:47;;;;;;;3.15;0.20;;;21.90;38.90;;;;;;5038561;28;20056;-56
2022/01/06 02:38:16;;;;;;;4.20;0.60;;;21.90;38.80;;;;;;5038894;28;20040;-58
2022/01/06 02:40:43;;;;;;;3.10;0.73;;;21.90;38.80;;;;;;5039782;28;20557;-58
2022/01/06 02:43:14;;;;;;;4.68;0.95;;;21.80;38.80;;;;;;5045638;28;20684;-56
2022/01/06 02:45:42;;;;;;;6.32;0.50;;;21.90;38.90;;;;;;5036698;28;20106;-56
2022/01/06 02:48:09;;;;;;;1.45;0.20;;;21.80;38.80;;;;;;5024760;28;20060;-57
2022/01/06 02:50:38;;;;;;;2.28;0.60;;;21.80;38.80;;;;;;5037332;28;20059;-66
2022/01/06 02:53:06;;;;;;;2.88;0.28;;;21.90;38.90;;;;;;5041831;28;20037;-57
2022/01/06 02:55:36;;;;;;;1.95;0.45;;;21.80;38.80;;;;;;5044828;28;20560;-60
2022/01/06 02:58:03;;;;;;;2.00;0.75;;;21.80;38.80;;;;;;5043692;28;20124;-63
2022/01/06 03:00:30;;;;;;;4.15;1.02;;;21.80;38.80;;;;;;5044728;28;20146;-65
2022/01/06 03:02:57;;;;;;;2.95;0.52;;;21.80;38.80;;;;;;5038242;28;20049;-71
2022/01/06 03:05:25;;;;;;;1.58;0.77;;;21.80;38.80;;;;;;5037190;28;20037;-66
2022/01/06 03:07:52;;;;;;;2.58;0.43;;;21.80;38.80;;;;;;5036722;28;20111;-68
2022/01/06 03:10:19;;;;;;;2.03;0.45;;;21.80;38.90;;;;;;5045150;28;20041;-72
2022/01/06 03:12:48;;;;;;;2.00;1.27;;;21.80;38.80;;;;;;5035131;28;20445;-67
2022/01/06 03:15:19;;;;;;;1.67;0.93;;;21.80;38.80;;;;;;5040356;28;20041;-74
2022/01/06 03:17:48;;;;;;;1.65;0.40;;;21.80;38.80;;;;;;5042025;28;20037;-72
2022/01/06 03:20:17;;;;;;;2.78;0.52;;;21.80;38.70;;;;;;5033414;28;20049;-61
2022/01/06 03:22:44;;;;;;;2.03;0.88;;;21.80;38.70;;;;;;5041540;28;20041;-56
2022/01/06 03:25:13;;;;;;;3.13;0.77;;;21.80;38.70;;;;;;5038384;28;20502;-57
2022/01/06 03:27:41;;;;;;;0.98;0.35;;;21.80;38.70;;;;;;5040166;28;20045;-61
2022/01/06 03:30:13;;;;;;;2.50;0.55;;;21.80;38.70;;;;;;5040921;28;20041;-61
2022/01/06 03:32:42;;;;;;;1.67;1.10;;;21.80;38.60;;;;;;5036508;28;20079;-59
2022/01/06 03:35:10;;;;;;;2.13;0.30;;;21.80;38.60;;;;;;5039969;28;20040;-60
2022/01/06 03:37:38;;;;;;;3.30;0.70;;;21.80;38.60;;;;;;5031452;28;20041;-67
2022/01/06 03:40:06;;;;;;;0.93;0.40;;;21.80;38.60;;;;;;5043522;28;20049;-63
2022/01/06 03:42:35;;;;;;;2.30;0.75;;;21.80;38.60;;;;;;5040893;28;20635;-64
2022/01/06 03:45:03;;;;;;;2.63;0.30;;;21.80;38.60;;;;;;5037848;28;20421;-63
2022/01/06 03:47:32;;;;;;;0.57;0.57;;;21.80;38.60;;;;;;5039111;28;20033;-46
2022/01/06 03:49:59;;;;;;;0.85;0.20;;;21.80;38.50;;;;;;5032856;28;20119;-49
2022/01/06 03:52:26;;;;;;;2.05;0.38;;;21.80;38.90;;;;;;5036001;28;20041;-54
2022/01/06 03:54:53;;;;;;;3.08;0.80;;;21.70;39.10;;;;;;5040701;28;20037;-49
2022/01/06 03:57:20;;;;;;;2.85;0.40;;;21.60;39.20;;;;;;5038962;28;20033;-52
2022/01/06 03:59:47;;;;;;;3.70;0.47;;;21.50;39.40;;;;;;5035555;28;20044;-51
2022/01/06 04:02:14;;;;;;;1.27;0.50;;;21.40;39.60;;;;;;5039854;28;20060;-50
2022/01/06 04:04:42;;;;;;;3.25;0.47;;;21.20;39.80;;;;;;5038046;28;20037;-48
2022/01/06 04:07:09;;;;;;;5.25;0.90;;;21.10;40.10;;;;;;5037782;28;20486;-48
2022/01/06 04:09:36;;;;;;;2.88;0.70;;;21.00;40.30;;;;;;5032352;28;20037;-49
2022/01/06 04:12:04;;;;;;;2.92;0.90;;;20.90;40.40;;;;;;5033964;28;20048;-51
2022/01/06 04:14:31;;;;;;;1.50;0.45;;;20.80;40.80;;;;;;5034769;28;20048;-48
2022/01/06 04:17:00;;;;;;;1.92;0.70;;;20.60;41.00;;;;;;5036332;28;20037;-47
2022/01/06 04:19:27;;;;;;;1.63;0.40;;;20.50;41.10;;;;;;5035660;28;20127;-52
2022/01/06 04:21:55;;;;;;;1.77;0.50;;;20.40;41.30;;;;;;5035783;28;20044;-48
2022/01/06 04:24:22;;;;;;;1.25;0.55;;;20.40;41.50;;;;;;5036031;28;20036;-52
2022/01/06 04:26:49;;;;;;;3.17;1.25;;;20.30;41.70;;;;;;5036195;28;20347;-48
2022/01/06 04:29:16;;;;;;;2.17;0.57;;;20.10;41.80;;;;;;5033746;28;20040;-52
2022/01/06 04:31:43;;;;;;;3.78;0.50;;;20.00;42.00;;;;;;5036453;28;20045;-53
2022/01/06 04:34:10;;;;;;;2.97;0.50;;;20.00;42.20;;;;;;5039432;28;20041;-53
2022/01/06 04:36:39;;;;;;;3.22;0.55;;;19.90;42.30;;;;;;5038207;28;20080;-51
2022/01/06 04:39:07;;;;;;;2.15;0.50;;;19.90;42.50;;;;;;5038121;28;20523;-49
2022/01/06 04:41:34;;;;;;;1.45;0.50;;;19.80;42.70;;;;;;5037094;28;20091;-48
2022/01/06 04:44:01;;;;;;;2.97;0.20;;;19.70;43.40;;;;;;5038472;28;20041;-50
2022/01/06 04:46:28;;;;;;;3.55;0.52;;;19.60;42.80;;;;;;5034398;28;20406;-48
2022/01/06 04:48:56;;;;;;;8.48;0.52;;;19.60;43.50;;;;;;5042818;28;20044;-52
2022/01/06 04:51:23;;;;;;;1.05;0.40;;;19.50;43.00;;;;;;5034867;28;20902;-50
2022/01/06 04:53:50;;;;;;;6.07;1.92;;;19.50;43.20;;;;;;5035081;28;20037;-47
2022/01/06 04:56:18;;;;;;;0.70;0.30;;;19.40;43.20;;;;;;5035121;28;20409;-49
2022/01/06 04:58:45;;;;;;;6.63;0.70;;;19.40;43.40;;;;;;5035206;28;20053;-47
2022/01/06 05:01:12;;;;;;;1.50;0.40;;;19.30;43.50;;;;;;5033588;28;20041;-47
2022/01/06 05:03:39;;;;;;;1.73;0.50;;;19.30;43.60;;;;;;5035547;28;20049;-48
2022/01/06 05:06:06;;;;;;;0.35;0.35;;;19.20;43.60;;;;;;5045184;28;20041;-52
2022/01/06 05:08:33;;;;;;;5.47;0.40;;;19.20;44.30;;;;;;5040438;28;20077;-51
2022/01/06 05:11:00;;;;;;;0.93;0.32;;;19.20;43.80;;;;;;5032485;28;20053;-51
2022/01/06 05:13:29;;;;;;;2.13;0.50;;;19.10;43.90;;;;;;5032558;28;20562;-46
2022/01/06 05:15:56;;;;;;;4.00;0.82;;;19.10;44.00;;;;;;5040127;28;20049;-47
2022/01/06 05:18:23;;;;;;;3.05;0.60;;;19.00;43.90;;;;;;5036423;28;20049;-51
2022/01/06 05:20:50;;;;;;;3.97;0.50;;;19.00;44.10;;;;;;5035934;28;20557;-52
2022/01/06 05:23:19;;;;;;;0.90;0.40;;;18.90;44.20;;;;;;5035036;28;20037;-48
2022/01/06 05:25:46;;;;;;;2.88;0.70;;;18.90;44.30;;;;;;5035577;28;20185;-53
2022/01/06 05:28:13;;;;;;;3.30;0.43;;;18.90;44.40;;;;;;5036076;28;20707;-51
2022/01/06 05:30:41;;;;;;;2.17;0.20;;;18.90;44.50;;;;;;5037016;28;20042;-48
2022/01/06 05:33:10;;;;;;;1.10;0.60;;;18.80;44.60;;;;;;5040447;28;20053;-54
2022/01/06 05:35:37;;;;;;;0.80;0.50;;;18.80;44.60;;;;;;5037286;28;20079;-49
2022/01/06 05:38:04;;;;;;;0.65;0.65;;;18.70;44.60;;;;;;5033343;28;20051;-48
2022/01/06 05:40:31;;;;;;;2.20;0.35;;;18.70;44.70;;;;;;5035952;28;20045;-47
2022/01/06 05:42:59;;;;;;;0.80;0.22;;;18.70;44.70;;;;;;5034105;28;20053;-50
2022/01/06 05:45:27;;;;;;;1.52;0.30;;;18.70;44.80;;;;;;5034378;28;20133;-50
2022/01/06 05:47:56;;;;;;;3.85;0.43;;;18.70;44.90;;;;;;5036399;28;20052;-49
2022/01/06 05:50:23;;;;;;;0.35;0.30;;;18.60;45.00;;;;;;5034221;28;20551;-49
2022/01/06 05:52:54;;;;;;;2.33;0.52;;;18.60;45.10;;;;;;5031683;28;20064;-48
2022/01/06 05:55:21;;;;;;;1.08;0.57;;;18.60;45.20;;;;;;5033563;28;20129;-49
2022/01/06 05:57:50;;;;;;;2.33;0.57;;;18.60;45.20;;;;;;5039673;28;20080;-50
2022/01/06 06:00:18;;;;;;;2.33;0.50;;;18.60;45.30;;;;;;5035137;28;20047;-50
2022/01/06 06:02:45;;;;;;;0.68;0.35;;;18.50;45.30;;;;;;5033996;28;20048;-52
2022/01/06 06:05:13;;;;;;;1.65;0.70;;;18.50;45.30;;;;;;5032786;28;20111;-51
2022/01/06 06:07:40;;;;;;;5.10;0.52;;;18.50;45.40;;;;;;5059228;28;20047;-50
2022/01/06 06:10:09;;;;;;;1.55;0.35;;;18.50;45.50;;;;;;5034955;28;20059;-49
2022/01/06 06:12:36;;;;;;;3.35;0.30;;;18.50;45.60;;;;;;5034777;28;20505;-52
2022/01/06 06:15:03;;;;;;;1.15;0.47;;;18.50;46.10;;;;;;5039042;28;20083;-50
2022/01/06 06:17:30;;;;;;;3.45;0.50;;;18.40;45.50;;;;;;5035935;28;20049;-48
2022/01/06 06:19:57;;;;;;;2.45;0.30;;;18.40;45.50;;;;;;5032199;28;20469;-51
2022/01/06 06:22:25;;;;;;;1.80;0.38;;;18.40;45.50;;;;;;5032378;28;20038;-49
2022/01/06 06:24:52;;;;;;;3.50;0.45;;;18.40;45.60;;;;;;5046335;28;20069;-50
2022/01/06 06:27:19;;;;;;;2.22;0.55;;;18.40;45.60;;;;;;5040172;28;20474;-48
2022/01/06 06:29:47;;;;;;;5.55;0.43;;;18.40;45.70;;;;;;5035444;28;20149;-52
2022/01/06 06:32:14;;;;;;;2.13;0.70;;;18.40;45.70;;;;;;5032324;28;20525;-52
2022/01/06 06:34:41;;;;;;;1.38;0.20;;;18.30;45.70;;;;;;5030342;28;20499;-53
2022/01/06 06:37:08;;;;;;;1.05;0.30;;;18.30;45.70;;;;;;5034769;28;20045;-47
2022/01/06 06:39:37;;;;;;;1.02;0.45;;;18.30;45.70;;;;;;5037702;28;20080;-53
2022/01/06 06:42:04;;;;;;;1.35;0.20;;;18.30;45.80;;;;;;5033786;28;20037;-52
2022/01/06 06:44:31;;;;;;;1.55;0.35;;;18.30;45.90;;;;;;5030806;28;20045;-53
2022/01/06 06:46:59;;;;;;;0.70;0.38;;;18.30;45.90;;;;;;5032450;28;20045;-50
2022/01/06 06:49:26;;;;;;;6.13;1.02;;;18.30;45.90;;;;;;5035964;28;20074;-49
2022/01/06 06:51:53;;;;;;;1.95;0.80;;;18.30;45.90;;;;;;5037873;28;20486;-52
2022/01/06 06:54:20;;;;;;;1.75;0.30;;;18.30;45.90;;;;;;5034626;28;20118;-48
2022/01/06 06:56:48;;;;;;;4.38;0.40;;;18.20;45.90;;;;;;5034909;28;20073;-51
2022/01/06 06:59:15;;;;;;;0.95;0.50;;;18.20;46.00;;;;;;5033490;28;20048;-51
2022/01/06 07:01:42;;;;;;;3.63;0.38;;;18.30;46.00;;;;;;5040198;28;20057;-53
2022/01/06 07:04:10;;;;;;;1.33;0.63;;;18.20;46.00;;;;;;5034741;28;20064;-50
2022/01/06 07:06:37;;;;;;;2.85;0.30;;;18.20;46.00;;;;;;5039635;28;20041;-52
2022/01/06 07:09:04;;;;;;;2.88;0.93;;;18.20;46.10;;;;;;5035205;28;20052;-53
2022/01/06 07:11:32;;;;;;;1.92;0.40;;;18.20;46.10;;;;;;5032927;28;20048;-48
2022/01/06 07:14:00;;;;;;;0.68;0.32;;;18.20;46.10;;;;;;5032898;28;20044;-53
2022/01/06 07:16:28;;;;;;;1.58;0.40;;;18.20;46.10;;;;;;5037538;28;20033;-50
2022/01/06 07:18:55;;;;;;;1.42;0.40;;;18.20;46.10;;;;;;5036397;28;20142;-54
2022/01/06 07:21:22;;;;;;;5.72;0.25;;;18.20;46.10;;;;;;5039409;28;20102;-51
2022/01/06 07:23:49;;;;;;;1.55;0.30;;;18.20;46.30;;;;;;5034683;28;20462;-51
2022/01/06 07:26:17;;;;;;;0.70;0.30;;;18.20;46.20;;;;;;5029290;28;20445;-52
2022/01/06 07:28:44;;;;;;;3.83;0.98;;;18.10;46.20;;;;;;5029465;28;20052;-54
2022/01/06 07:31:13;;;;;;;1.02;0.68;;;18.20;46.30;;;;;;5039709;28;20041;-50
2022/01/06 07:33:40;;;;;;;2.67;0.57;;;18.20;46.30;;;;;;5051997;28;20049;-51
2022/01/06 07:36:08;;;;;;;3.55;0.63;;;18.10;46.20;;;;;;5041800;28;20033;-49
2022/01/06 07:38:35;;;;;;;1.48;0.43;;;18.10;46.30;;;;;;5032978;28;20076;-53
2022/01/06 07:41:03;;;;;;;1.73;0.30;;;18.10;46.30;;;;;;5040204;28;20071;-49
2022/01/06 07:43:30;;;;;;;2.30;0.30;;;18.10;46.20;;;;;;5030310;28;20049;-53
2022/01/06 07:45:57;;;;;;;3.40;0.75;;;18.10;46.20;;;;;;5039141;28;20059;-47
2022/01/06 07:48:36;;;;;;;2.95;0.25;;;18.10;46.20;;;;;;5037947;28;20045;-49
2022/01/06 07:51:04;;;;;;;0.65;0.30;;;18.10;46.30;;;;;;5047429;28;20037;-50
2022/01/06 07:53:31;;;;;;;2.20;0.45;;;18.10;46.30;;;;;;5040736;28;20052;-52
2022/01/06 07:55:58;;;;;;;4.07;0.45;;;18.10;46.40;;;;;;5034960;28;20049;-49
2022/01/06 07:58:25;;;;;;;1.02;0.15;;;18.10;46.40;;;;;;5037053;28;20154;-49
2022/01/06 08:00:54;;;;;;;1.15;0.38;;;18.10;46.40;;;;;;5035800;28;20668;-48
2022/01/06 08:03:22;;;;;;;1.23;0.70;;;18.10;46.40;;;;;;5035088;28;20048;-51
2022/01/06 08:05:50;;;;;;;0.90;0.40;;;18.10;46.40;;;;;;5032744;28;20538;-50
2022/01/06 08:08:17;;;;;;;1.45;0.20;;;18.10;46.50;;;;;;5038595;28;20043;-53
2022/01/06 08:10:45;;;;;;;0.30;0.10;;;18.10;46.60;;;;;;5038959;28;20040;-52
2022/01/06 08:13:13;;;;;;;1.58;0.30;;;18.10;46.60;;;;;;5042211;28;20803;-47
2022/01/06 08:15:40;;;;;;;4.50;0.30;;;18.10;46.60;;;;;;5042623;28;20407;-52
2022/01/06 08:18:07;;;;;;;1.33;0.35;;;18.10;46.30;;;;;;5041554;28;20052;-67
2022/01/06 08:20:35;;;;;;;1.30;0.30;;;18.10;46.10;;;;;;5042624;28;20099;-64
2022/01/06 08:23:04;;;;;;;5.05;0.77;;;18.10;46.30;;;;;;5044913;28;20045;-68
2022/01/06 08:25:31;;;;;;;1.67;0.73;;;18.20;46.20;;;;;;5041885;28;20039;-69
2022/01/06 08:27:58;;;;;;;1.33;1.05;;;18.20;46.40;;;;;;5039896;28;20037;-66
2022/01/06 08:30:26;;;;;;;1.42;1.23;;;18.30;46.40;;;;;;5044771;28;20037;-67
2022/01/06 08:32:55;;;;;;;1.45;0.90;;;18.40;46.30;;;;;;5044891;28;20174;-65
2022/01/06 08:35:22;;;;;;;1.40;0.77;;;18.50;46.20;;;;;;5034774;28;20099;-59
2022/01/06 08:37:49;;;;;;;2.85;0.82;;;18.60;45.90;;;;;;5043002;28;20041;-63
2022/01/06 08:40:18;;;;;;;2.00;0.43;;;18.70;45.70;;;;;;5041099;28;20537;-63
2022/01/06 08:42:46;;;;;;;3.35;1.00;;;18.80;45.50;;;;;;5046257;28;20040;-66
2022/01/06 08:45:17;;;;;;;1.40;0.40;;;18.80;45.20;;;;;;5044201;28;20626;-69
2022/01/06 08:47:45;;;;;;;1.15;0.40;;;19.00;45.00;;;;;;5038476;28;20585;-66
2022/01/06 08:50:13;;;;;;;3.72;0.40;;;19.00;44.70;;;;;;5046312;28;20508;-64
2022/01/06 08:52:41;;;;;;;2.95;1.95;;;19.10;44.40;;;;;;5034785;28;20060;-72
2022/01/06 08:55:10;;;;;;;2.33;1.13;;;19.20;44.00;;;;;;5047272;28;20124;-68
2022/01/06 08:57:39;;;;;;;3.17;0.98;;;19.30;43.80;;;;;;5044647;28;20049;-61
2022/01/06 09:00:09;;;;;;;3.20;0.98;;;19.40;43.60;;;;;;5040713;28;20497;-68
2022/01/06 09:02:36;;;;;;;1.83;0.88;;;19.50;43.40;;;;;;5044952;28;20049;-69
2022/01/06 09:05:06;;;;;;;2.45;0.68;;;19.60;43.10;;;;;;5043020;28;20511;-70
2022/01/06 09:07:33;;;;;;;2.88;1.10;;;19.70;42.90;;;;;;5039166;28;20061;-65
2022/01/06 09:10:00;;;;;;;3.78;1.02;;;19.80;42.70;;;;;;5036479;28;20127;-69
2022/01/06 09:12:28;;;;;;;0.65;0.30;;;19.90;42.60;;;;;;5040256;28;20060;-75
2022/01/06 09:14:57;;;;;;;2.28;0.60;;;19.90;42.30;;;;;;5042455;28;20809;-70
2022/01/06 09:17:25;;;;;;;2.40;0.43;;;20.00;42.20;;;;;;5045312;28;20130;-62
2022/01/06 09:19:52;;;;;;;2.95;1.02;;;20.10;42.10;;;;;;5042908;28;20043;-70
2022/01/06 09:22:19;;;;;;;4.97;1.60;;;20.20;41.90;;;;;;5058864;28;20041;-63
2022/01/06 09:24:47;;;;;;;1.20;0.50;;;20.20;41.80;;;;;;5039476;28;20125;-57
2022/01/06 09:27:15;;;;;;;1.77;0.63;;;20.30;41.70;;;;;;5042332;28;20040;-58
2022/01/06 09:29:42;;;;;;;1.90;0.73;;;20.40;41.70;;;;;;5037154;28;20703;-58
2022/01/06 09:32:10;;;;;;;3.30;0.57;;;20.50;41.50;;;;;;5045574;28;20453;-59
2022/01/06 09:34:38;;;;;;;1.67;0.50;;;20.60;41.40;;;;;;5045827;28;20498;-61
2022/01/06 09:37:05;;;;;;;3.33;0.77;;;20.70;41.30;;;;;;5041113;28;20033;-60
2022/01/06 09:39:32;;;;;;;2.28;0.80;;;20.70;41.10;;;;;;5042430;28;20047;-56
2022/01/06 09:42:00;;;;;;;2.92;0.40;;;20.80;41.00;;;;;;5041970;28;20053;-62
2022/01/06 09:44:28;;;;;;;3.30;0.57;;;20.90;40.80;;;;;;5040246;28;20052;-60
2022/01/06 09:46:55;;;;;;;1.90;0.68;;;20.90;40.60;;;;;;5034332;28;20044;-58
2022/01/06 09:49:25;;;;;;;7.90;0.95;;;21.00;40.50;;;;;;5046959;28;20099;-58
2022/01/06 09:51:52;;;;;;;2.72;0.70;;;21.00;40.30;;;;;;5041298;28;20033;-58
2022/01/06 09:54:20;;;;;;;2.85;0.52;;;21.10;40.20;;;;;;5044045;28;20051;-60
2022/01/06 09:56:47;;;;;;;3.10;1.10;;;21.10;40.00;;;;;;5037916;28;20041;-56
2022/01/06 09:59:14;;;;;;;3.70;0.75;;;21.10;39.90;;;;;;5044076;28;20051;-58
2022/01/06 10:01:42;;;;;;;2.08;1.08;;;21.20;39.80;;;;;;5041292;28;20547;-60
2022/01/06 10:04:18;;;;;;;2.25;0.80;;;21.20;39.70;;;;;;5044130;28;20635;-62
2022/01/06 10:06:57;;;;;;;;;;;21.30;39.70;;;;;;5043418;28;20589;-62
2022/01/06 10:09:24;;;;;;;1.65;0.70;;;21.20;39.50;;;;;;5043479;28;19925;-61
2022/01/06 10:11:55;;;;;;;3.60;0.75;;;21.20;39.60;;;;;;5044455;28;20064;-62
2022/01/06 10:14:31;;;;;;;1.25;0.70;;;21.30;39.50;;;;;;5042785;28;20136;-65
2022/01/06 10:16:59;;;;;;;1.58;0.80;;;21.40;39.50;;;;;;5028796;28;20050;-54
2022/01/06 10:19:26;;;;;;;2.30;0.68;;;21.40;39.40;;;;;;5044348;28;20044;-58
2022/01/06 10:21:59;;;;;;;2.08;0.73;;;21.40;39.30;;;;;;5042308;28;20052;-59
2022/01/06 10:24:28;;;;;;;1.38;0.40;;;21.50;39.30;;;;;;5038213;28;20073;-65
2022/01/06 10:26:57;;;;;;;2.13;0.50;;;21.50;39.20;;;;;;5043413;28;20850;-60
2022/01/06 10:29:27;;;;;;;5.18;0.60;;;21.50;39.20;;;;;;5040749;28;20061;-61
2022/01/06 10:32:02;;;;;;;6.43;0.60;;;21.50;39.00;;;;;;5044785;28;20029;-60
2022/01/06 10:34:31;;;;;;;0.98;0.40;;;21.60;38.90;;;;;;5032988;28;20041;-63
2022/01/06 10:37:01;;;;;;;2.38;1.20;;;21.60;38.80;;;;;;5039724;28;20053;-49
2022/01/06 10:39:42;;;;;;;4.68;1.10;;;21.70;38.80;;;;;;5040478;28;20045;-52
2022/01/06 10:42:11;;;;;;;1.63;1.20;;;21.70;39.00;;;;;;5035810;28;20072;-59
2022/01/06 10:44:47;;;;;;;3.83;1.15;;;21.70;39.10;;;;;;5041454;28;20132;-59
2022/01/06 10:47:15;;;;;;;1.83;1.00;;;21.80;39.10;;;;;;5040634;28;20127;-62
2022/01/06 10:49:42;;;;;;;3.90;0.80;;;21.80;39.10;;;;;;5037873;28;20434;-62
2022/01/06 10:52:11;;;;;;;1.98;0.95;;;21.80;39.00;;;;;;5040885;28;20046;-61
2022/01/06 10:54:39;;;;;;;2.90;0.90;;;21.90;38.90;;;;;;5040606;28;20045;-50
2022/01/06 10:57:09;;;;;;;3.75;2.35;;;21.90;38.80;;;;;;5040892;28;20444;-63
2022/01/06 10:59:37;;;;;;;3.42;0.77;;;21.90;38.90;;;;;;5038373;28;20052;-51
2022/01/06 11:02:06;;;;;;;7.50;0.85;;;21.90;39.20;;;;;;5038494;28;20095;-60
2022/01/06 11:04:33;;;;;;;4.43;0.77;;;21.90;39.20;;;;;;5035677;28;20057;-62
2022/01/06 11:07:01;;;;;;;8.55;0.60;;;21.90;39.20;;;;;;5041808;28;20135;-62
2022/01/06 11:09:31;;;;;;;3.15;1.10;;;21.80;39.20;;;;;;5038116;28;20045;-65
2022/01/06 11:14:45;;;;;;;2.90;0.65;;;21.80;39.20;;;;;;5040340;28;20079;-61
2022/01/06 11:17:13;;;;;;;2.65;0.70;;;21.80;39.20;;;;;;5038359;28;20037;-63
2022/01/06 11:19:40;;;;;;;1.48;0.63;;;21.80;39.20;;;;;;5041365;28;20060;-65
2022/01/06 11:22:09;;;;;;;2.47;0.40;;;21.80;39.20;;;;;;5043833;28;20079;-62
2022/01/06 11:24:39;;;;;;;1.70;0.57;;;21.80;39.10;;;;;;5041110;28;20049;-59
2022/01/06 11:27:09;;;;;;;4.40;1.05;;;21.80;39.00;;;;;;5036832;28;20045;-62
2022/01/06 11:29:39;;;;;;;5.30;0.90;;;21.80;39.00;;;;;;5038429;28;20489;-63
2022/01/06 11:32:19;;;;;;;3.33;0.52;;;21.80;38.80;;;;;;5035466;28;20040;-61
2022/01/06 11:34:47;;;;;;;2.10;0.35;;;21.80;38.70;;;;;;5031026;28;20064;-61
2022/01/06 11:37:16;;;;;;;1.60;0.50;;;21.80;38.60;;;;;;5043905;28;20103;-63
2022/01/06 11:39:45;;;;;;;2.63;0.57;;;21.90;38.30;;;;;;5042044;28;20048;-61
2022/01/06 11:42:20;;;;;;;2.67;0.95;;;22.10;38.00;;;;;;5037958;28;20167;-63
2022/01/06 11:44:52;;;;;;;1.27;1.17;;;22.20;37.80;;;;;;5042123;28;20057;-64
2022/01/06 11:47:31;;;;;;;0.68;0.30;;;22.20;37.70;;;;;;5031463;28;20045;-64
2022/01/06 11:50:11;;;;;;;4.88;0.57;;;22.30;37.70;;;;;;5037458;28;20037;-64
2022/01/06 11:52:49;;;;;;;0.80;0.28;;;22.20;37.50;;;;;;5031842;28;20128;-59
2022/01/06 11:58:12;;;;;;;3.50;0.70;;;22.20;37.50;;;;;;5031652;28;20502;-61
2022/01/06 12:00:42;;;;;;;2.65;0.75;;;22.20;37.60;;;;;;5035872;28;20045;-64
2022/01/06 12:03:11;;;;;;;1.95;0.60;;;22.20;37.50;;;;;;5043144;28;20052;-69
2022/01/06 12:05:44;;;;;;;1.48;0.22;;;22.20;38.00;;;;;;5040527;28;20572;-63
2022/01/06 12:08:11;;;;;;;2.47;0.70;;;22.30;37.40;;;;;;5038270;28;20080;-57
2022/01/06 12:10:41;;;;;;;2.70;0.80;;;22.20;37.40;;;;;;5031624;28;20052;-61
2022/01/06 12:13:09;;;;;;;2.50;0.50;;;22.30;37.40;;;;;;5042547;28;20041;-61
2022/01/06 12:15:46;;;;;;;3.40;0.60;;;22.30;37.40;;;;;;5041264;28;20041;-57
2022/01/06 12:18:18;;;;;;;0.95;0.30;;;22.30;37.30;;;;;;5041460;28;20103;-57
2022/01/06 12:20:47;;;;;;;2.03;0.35;;;22.50;37.00;;;;;;5043082;28;20041;-66
2022/01/06 12:23:15;;;;;;;2.85;0.47;;;22.60;36.80;;;;;;5043478;28;20041;-64
2022/01/06 12:25:54;;;;;;;4.90;0.63;;;22.70;36.50;;;;;;5042613;28;20045;-53
2022/01/06 12:28:22;;;;;;;2.15;0.70;;;22.90;36.40;;;;;;5034410;28;20300;-53
2022/01/06 12:30:50;;;;;;;2.90;0.77;;;23.00;36.30;;;;;;5041598;28;20033;-57
2022/01/06 12:33:21;;;;;;;1.10;0.47;;;23.10;36.10;;;;;;5040999;28;20056;-54
2022/01/06 12:35:50;;;;;;;1.35;0.20;;;23.20;35.90;;;;;;5039324;28;20059;-57
2022/01/06 12:38:26;;;;;;;2.90;0.63;;;23.40;35.80;;;;;;5040350;28;20045;-60
2022/01/06 12:40:55;;;;;;;2.13;0.43;;;23.50;35.60;;;;;;5029258;28;20520;-45
2022/01/06 12:43:25;;;;;;;2.20;0.32;;;23.70;35.40;;;;;;5027842;28;20045;-43
2022/01/06 12:46:03;;;;;;;1.58;0.50;;;23.80;35.10;;;;;;5031481;28;20065;-45
2022/01/06 12:48:32;;;;;;;4.65;1.00;;;23.80;34.90;;;;;;5034707;28;20037;-43
2022/01/06 12:50:59;;;;;;;2.70;0.50;;;23.90;34.80;;;;;;5040855;28;20513;-43
2022/01/06 12:53:28;;;;;;;3.63;0.65;;;24.00;34.70;;;;;;5034369;28;20095;-49
2022/01/06 12:55:58;;;;;;;2.38;0.50;;;24.00;34.60;;;;;;5039699;28;20037;-70
2022/01/06 12:58:27;;;;;;;0.77;0.20;;;24.10;34.60;;;;;;5043235;28;20052;-67
2022/01/06 13:00:55;;;;;;;2.20;0.25;;;24.20;34.60;;;;;;5042411;28;20037;-65
2022/01/06 13:03:31;;;;;;;4.15;0.60;;;24.30;34.40;;;;;;5045629;28;20079;-60
2022/01/06 13:06:00;;;;;;;1.92;0.35;;;24.30;34.20;;;;;;5039664;28;20588;-67